Map

Track Data

SID SEASON NUMBER BASIN SUBBASIN NAME ISO_TIME NATURE LAT LON WMO_WIND WMO_PRES WMO_AGENCY TRACK_TYPE DIST2LAND LANDFALL IFLAG USA_AGENCY USA_ATCF_ID USA_LAT USA_LON USA_RECORD USA_STATUS USA_WIND USA_PRES USA_SSHS USA_R34_NE USA_R34_SE USA_R34_SW USA_R34_NW USA_R50_NE USA_R50_SE USA_R50_SW USA_R50_NW USA_R64_NE USA_R64_SE USA_R64_SW USA_R64_NW USA_POCI USA_ROCI USA_RMW USA_EYE TOKYO_LAT TOKYO_LON TOKYO_GRADE TOKYO_WIND TOKYO_PRES TOKYO_R50_DIR TOKYO_R50_LONG TOKYO_R50_SHORT TOKYO_R30_DIR TOKYO_R30_LONG TOKYO_R30_SHORT TOKYO_LAND CMA_LAT CMA_LON CMA_CAT CMA_WIND CMA_PRES HKO_LAT HKO_LON HKO_CAT HKO_WIND HKO_PRES NEWDELHI_LAT NEWDELHI_LON NEWDELHI_GRADE NEWDELHI_WIND NEWDELHI_PRES NEWDELHI_CI NEWDELHI_DP NEWDELHI_POCI REUNION_LAT REUNION_LON REUNION_TYPE REUNION_WIND REUNION_PRES REUNION_TNUM REUNION_CI REUNION_RMW REUNION_R34_NE REUNION_R34_SE REUNION_R34_SW REUNION_R34_NW REUNION_R50_NE REUNION_R50_SE REUNION_R50_SW REUNION_R50_NW REUNION_R64_NE REUNION_R64_SE REUNION_R64_SW REUNION_R64_NW BOM_LAT BOM_LON BOM_TYPE BOM_WIND BOM_PRES BOM_TNUM BOM_CI BOM_RMW BOM_R34_NE BOM_R34_SE BOM_R34_SW BOM_R34_NW BOM_R50_NE BOM_R50_SE BOM_R50_SW BOM_R50_NW BOM_R64_NE BOM_R64_SE BOM_R64_SW BOM_R64_NW BOM_ROCI BOM_POCI BOM_EYE BOM_POS_METHOD BOM_PRES_METHOD NADI_LAT NADI_LON NADI_CAT NADI_WIND NADI_PRES WELLINGTON_LAT WELLINGTON_LON WELLINGTON_WIND WELLINGTON_PRES DS824_LAT DS824_LON DS824_STAGE DS824_WIND DS824_PRES TD9636_LAT TD9636_LON TD9636_STAGE TD9636_WIND TD9636_PRES TD9635_LAT TD9635_LON TD9635_WIND TD9635_PRES TD9635_ROCI NEUMANN_LAT NEUMANN_LON NEUMANN_CLASS NEUMANN_WIND NEUMANN_PRES MLC_LAT MLC_LON MLC_CLASS MLC_WIND MLC_PRES USA_GUST BOM_GUST BOM_GUST_PER REUNION_GUST REUNION_GUST_PER USA_SEAHGT USA_SEARAD_NE USA_SEARAD_SE USA_SEARAD_SW USA_SEARAD_NW STORM_SPEED STORM_DIR
1978217N16129 1978 57 WP MM BESS:BONNIE 1978-08-04 12:00:00 TS 16.0000 129.000 main 547 533 __O___________ -1 16.0000 129.000 1 23 1006 5 293
1978217N16129 1978 57 WP MM BESS:BONNIE 1978-08-04 15:00:00 TS 16.1001 128.750 main 533 510 __P___________ -1 16.1001 128.750 1 23 1006 5 293
1978217N16129 1978 57 WP MM BESS:BONNIE 1978-08-04 18:00:00 TS 16.2000 128.500 main 510 497 __O___________ -1 16.2000 128.500 1 23 1006 5 293
1978217N16129 1978 57 WP MM BESS:BONNIE 1978-08-04 21:00:00 TS 16.3000 128.250 main 497 477 __P___________ -1 16.3000 128.250 1 23 1005 5 293
1978217N16129 1978 57 WP MM BESS:BONNIE 1978-08-05 00:00:00 TS 16.4000 128.000 main 477 466 __O___________ -1 16.4000 128.000 1 23 1004 5 293
1978217N16129 1978 57 WP MM BESS:BONNIE 1978-08-05 03:00:00 TS 16.5000 127.750 main 458 449 __P___________ -1 16.5000 127.750 1 23 1004 5 293
1978217N16129 1978 57 WP MM BESS:BONNIE 1978-08-05 06:00:00 TS 16.6000 127.500 main 449 441 __O___________ -1 16.6000 127.500 1 23 1004 5 293
1978217N16129 1978 57 WP MM BESS:BONNIE 1978-08-05 09:00:00 TS 16.7000 127.250 main 433 426 __P___________ -1 16.7000 127.250 1 23 1004 5 293
1978217N16129 1978 57 WP MM BESS:BONNIE 1978-08-05 12:00:00 TS 16.8000 127.000 main 426 419 __O___________ -1 16.8000 127.000 1 23 1004 5 293
1978217N16129 1978 57 WP MM BESS:BONNIE 1978-08-05 15:00:00 TS 16.9000 126.750 main 420 407 __P___________ -1 16.9000 126.750 1 23 1004 5 293
1978217N16129 1978 57 WP MM BESS:BONNIE 1978-08-05 18:00:00 TS 17.0000 126.500 main 410 404 __O___________ -1 17.0000 126.500 1 23 1004 5 291
1978217N16129 1978 57 WP MM BESS:BONNIE 1978-08-05 21:00:00 TS 17.0850 126.250 main 393 372 __P___________ -1 17.0850 126.250 1 26 1004 5 293
1978217N16129 1978 57 WP MM BESS:BONNIE 1978-08-06 00:00:00 TS 17.2000 126.000 main 372 352 __O___________ -1 17.2000 126.000 1 29 1004 6 302
1978217N16129 1978 57 WP MM BESS:BONNIE 1978-08-06 03:00:00 TS 17.3850 125.750 main 353 325 __P___________ -1 17.3850 125.750 1 29 1003 6 310
1978217N16129 1978 57 WP MM BESS:BONNIE 1978-08-06 06:00:00 TS 17.6000 125.500 main 325 307 __O___________ -1 17.6000 125.500 1 29 1002 6 311
1978217N16129 1978 57 WP MM BESS:BONNIE 1978-08-06 09:00:00 TS 17.8075 125.243 main 300 286 __P___________ -1 17.8075 125.243 1 29 1002 6 310
1978217N16129 1978 57 WP MM BESS:BONNIE 1978-08-06 12:00:00 TS 18.0000 125.000 main 286 265 __O___________ -1 18.0000 125.000 1 29 1002 5 308
1978217N16129 1978 57 WP MM BESS:BONNIE 1978-08-06 15:00:00 TS 18.1425 124.792 main 265 242 __P___________ -1 18.1425 124.792 1 29 1002 5 308
1978217N16129 1978 57 WP MM BESS:BONNIE 1978-08-06 18:00:00 TS 18.3000 124.600 main 242 221 __O___________ -1 18.3000 124.600 1 29 1002 5 317
1978217N16129 1978 57 WP MM BESS:BONNIE 1978-08-06 21:00:00 TS 18.5350 124.407 main 221 203 __P___________ -1 18.5350 124.407 1 29 1002 6 323
1978217N16129 1978 57 WP MM BESS:BONNIE 1978-08-07 00:00:00 TS 18.8000 124.200 main 205 191 __O___________ -1 18.8000 124.200 1 29 1002 7 320
1978217N16129 1978 57 WP MM BESS:BONNIE 1978-08-07 03:00:00 TS 19.0575 123.950 main 195 178 __P___________ -1 19.0575 123.950 1 29 1002 7 317
1978217N16129 1978 57 WP MM BESS:BONNIE 1978-08-07 06:00:00 TS 19.3000 123.700 main 178 168 __O___________ -1 19.3000 123.700 1 29 1002 6 315
1978217N16129 1978 57 WP MM BESS:BONNIE 1978-08-07 09:00:00 TS 19.4925 123.485 main 176 168 __P___________ -1 19.4925 123.485 1 29 1002 6 317
1978217N16129 1978 57 WP MM BESS:BONNIE 1978-08-07 12:00:00 TS 19.7000 123.300 main 179 179 __O___________ -1 19.7000 123.300 1 29 1002 6 328
1978217N16129 1978 57 WP MM BESS:BONNIE 1978-08-07 15:00:00 TS 19.9774 123.157 main 202 197 __P___________ -1 19.9774 123.157 1 29 1002 7 335
1978217N16129 1978 57 WP MM BESS:BONNIE 1978-08-07 18:00:00 TS 20.3000 123.000 main 224 224 __O___________ -1 20.3000 123.000 1 29 1002 7 336
1978217N16129 1978 57 WP MM BESS:BONNIE 1978-08-07 21:00:00 TS 20.6495 122.840 main 244 148 __P___________ -1 20.6495 122.840 1 29 1002 15 334
1978217N16129 1978 57 WP MM BESS:BONNIE 1978-08-08 00:00:00 TS 21.6429 122.286 main 148 61 O_O______OO___ jtwc_wp WP101978 22.5000 122.000 15 -1 21.0000 122.500 1 29 1002 22.5000 122.000 TC 15 22.5000 122.000 1 15 18 315
1978217N16129 1978 57 WP MM BESS:BONNIE 1978-08-08 03:00:00 TS 21.9084 121.489 main 61 0 P_P______PP___ WP101978 22.2908 121.229 15 -1 21.3224 121.863 1 29 1002 22.2908 121.229 TC 15 22.3158 121.261 1 16 16 283
1978217N16129 1978 57 WP MM BESS:BONNIE 1978-08-08 06:00:00 TS 21.9834 120.637 main 10 10 O_O______OP___ jtwc_wp WP101978 22.1000 120.500 15 -1 21.6000 121.000 1 29 1002 22.1000 120.500 TC 15 22.1337 120.548 1 17 15 271
1978217N16129 1978 57 WP MM BESS:BONNIE 1978-08-08 09:00:00 TS 21.9296 119.884 main 78 78 P_P______PP___ WP101978 21.9423 119.848 17 -1 21.8187 120.025 1 29 1002 21.9423 119.848 TC 17 21.9597 119.886 1 18 13 262
1978217N16129 1978 57 WP MM BESS:BONNIE 1978-08-08 12:00:00 TS 21.8154 119.277 main 129 129 O_O______OO___ jtwc_wp WP101978 21.8000 119.300 20 -1 22.0000 119.000 1 29 1002 21.8000 119.300 TC 20 21.8000 119.300 1 20 10 254
1978217N16129 1978 57 WP MM BESS:BONNIE 1978-08-08 15:00:00 TS 21.6523 118.853 main 169 169 P________PP___ WP101978 21.6496 118.878 20 -1 1 21.6496 118.878 TC 20 21.6576 118.804 1 21 8 248
1978217N16129 1978 57 WP MM BESS:BONNIE 1978-08-08 18:00:00 TS 21.5069 118.459 main 216 216 O________OP___ jtwc_wp WP101978 21.5000 118.500 20 -1 21.5000 118.500 TC 20 21.5207 118.377 1 22 8 249
1978217N16129 1978 57 WP MM BESS:BONNIE 1978-08-08 21:00:00 TS 21.3628 118.029 main 227 211 P________PP___ WP101978 21.3575 118.050 22 -1 21.3575 118.050 TC 22 21.3735 117.986 1 23 11 249
1978217N16129 1978 57 WP MM BESS:BONNIE 1978-08-09 00:00:00 TS 21.1077 117.323 998 tokyo main 217 213 OO_______OO___ jtwc_wp WP101978 21.2000 117.600 25 -1 20.0000 114.000 2 998 0 0 0 21.2000 117.600 TC 25 21.2000 117.600 1 25 13 244
1978217N16129 1978 57 WP MM BESS:BONNIE 1978-08-09 03:00:00 TS 20.7905 116.793 main 234 234 PP_______PP___ WP101978 21.0223 117.200 25 -1 19.4628 114.426 2 997 0 0 21.0223 117.200 TC 25 20.9908 117.163 1 25 13 232
1978217N16129 1978 57 WP MM BESS:BONNIE 1978-08-09 06:00:00 TS 20.3006 116.213 996 tokyo main 271 271 OO_O_____OP___ jtwc_wp WP101978 20.8000 116.800 25 -1 19.0000 114.700 2 996 0 0 0 18.4000 114.000 TD 30 990 20.8000 116.800 TC 25 20.7524 116.728 1 25 14 228
1978217N16129 1978 57 WP MM BESS:BONNIE 1978-08-09 09:00:00 TS 19.8620 115.703 main 302 302 PP_P_____PP___ WP101978 20.5225 116.342 25 -1 18.6749 114.725 2 995 0 0 18.3425 113.900 TD 30 990 20.5225 116.342 TC 25 20.4877 116.304 1 25 12 229
1978217N16129 1978 57 WP MM BESS:BONNIE 1978-08-09 12:00:00 TS 19.5421 115.295 994 tokyo main 329 326 OO_O_____OO___ jtwc_wp WP101978 20.2000 115.900 25 -1 18.5000 114.600 2 994 0 0 0 18.3000 113.800 TD 30 990 20.2000 115.900 TC 25 20.2000 115.900 1 25 9 230
1978217N16129 1978 57 WP MM BESS:BONNIE 1978-08-09 15:00:00 TS 19.2637 114.959 main 343 341 PP_P_____PP___ WP101978 19.8498 115.535 25 -1 18.4625 114.465 2 994 0 0 18.2850 113.700 TD 30 990 19.8498 115.535 TC 25 19.8713 115.561 1 26 7 229
1978217N16129 1978 57 WP MM BESS:BONNIE 1978-08-09 18:00:00 TS 19.0652 114.708 994 tokyo main 359 359 OO_O_____OP___ jtwc_wp WP101978 19.5000 115.200 25 -1 18.5000 114.300 2 994 0 0 0 18.3000 113.600 TD 30 990 19.5000 115.200 TC 25 19.5261 115.238 1 27 6 230
1978217N16129 1978 57 WP MM BESS:BONNIE 1978-08-09 21:00:00 TS 18.8794 114.481 main 370 350 PP_P_____PP___ WP101978 19.1772 114.880 27 -1 18.5073 114.188 2 994 0 0 18.3423 113.560 TD 30 990 19.1772 114.880 TC 27 19.1930 114.896 1 28 6 235
1978217N16129 1978 57 WP MM BESS:BONNIE 1978-08-10 00:00:00 TS 18.7200 114.180 994 tokyo main 350 304 OO_O_____OO___ jtwc_wp WP101978 18.9000 114.500 30 -1 18.5000 114.000 2 994 0 0 0 18.4000 113.400 TD 30 990 18.9000 114.500 TC 30 18.9000 114.500 1 30 8 248
1978217N16129 1978 57 WP MM BESS:BONNIE 1978-08-10 03:00:00 TS 18.5865 113.720 main 304 261 PP_P_____PP___ WP101978 18.6776 113.980 30 -1 18.4499 113.667 2 992 0 0 18.4577 112.960 TD 32 990 18.6776 113.980 TC 30 18.6698 114.012 1 30 10 256
1978217N16129 1978 57 WP MM BESS:BONNIE 1978-08-10 06:00:00 TS 18.4765 113.174 990 tokyo main 261 215 OO_O_____OP___ jtwc_wp WP101978 18.5000 113.400 30 -1 18.4000 113.200 2 990 0 0 0 18.5000 112.400 TS 35 990 18.5000 113.400 TC 30 18.4827 113.468 1 30 11 259
1978217N16129 1978 57 WP MM BESS:BONNIE 1978-08-10 09:00:00 TS 18.3749 112.587 main 215 167 PP_P_____PP___ WP101978 18.3348 112.850 30 -1 18.3926 112.630 2 990 0 0 18.5074 111.900 TS 37 987 18.3348 112.850 TC 30 18.3291 112.890 1 30 11 261
1978217N16129 1978 57 WP MM BESS:BONNIE 1978-08-10 12:00:00 TS 18.3000 112.009 40 990 tokyo main 167 119 OO_O_____OO___ jtwc_wp WP101978 18.2000 112.300 30 -1 18.4000 112.000 3 40 990 0 9 150 150 0 18.5000 111.400 TS 40 985 18.2000 112.300 TC 30 18.2000 112.300 1 30 11 263
1978217N16129 1978 57 WP MM BESS:BONNIE 1978-08-10 15:00:00 TS 18.2479 111.463 main 125 84 PP_P_____PP___ WP101978 18.0923 111.758 30 -1 18.3998 111.400 3 40 990 0 9 150 150 18.5074 110.893 TS 40 985 18.0923 111.758 TC 30 18.0656 111.745 1 31 10 265
1978217N16129 1978 57 WP MM BESS:BONNIE 1978-08-10 18:00:00 TS 18.2090 110.930 40 990 tokyo main 76 46 OO_O_____OP___ jtwc_wp WP101978 18.0000 111.200 30 -1 18.4000 110.800 3 40 990 0 9 150 150 0 18.5000 110.400 TS 40 985 18.0000 111.200 TC 30 17.9540 111.180 1 32 10 264
1978217N16129 1978 57 WP MM BESS:BONNIE 1978-08-10 21:00:00 TS 18.1466 110.415 main 53 23 PP_P_____PP___ WP101978 17.8848 110.615 32 -1 18.4076 110.170 3 40 990 0 9 125 125 18.4724 109.935 TS 42 985 17.8848 110.615 TC 32 17.8655 110.601 1 33 10 263
1978217N16129 1978 57 WP MM BESS:BONNIE 1978-08-11 00:00:00 TS 18.0833 109.883 40 990 tokyo main 23 11 OO_O_____OO___ jtwc_wp WP101978 17.8000 110.000 35 0 18.4000 109.600 3 40 990 0 9 100 100 0 18.4000 109.500 TS 45 985 17.8000 110.000 TC 35 17.8000 110.000 2 35 11 264
1978217N16129 1978 57 WP MM BESS:BONNIE 1978-08-11 03:00:00 TS 18.0326 109.314 main 30 30 PP_P_____PP___ WP101978 17.7924 109.358 35 0 18.3496 109.185 3 40 990 0 9 100 100 18.2498 109.100 TS 42 985 17.7924 109.358 TC 35 17.7533 109.364 2 36 11 265
1978217N16129 1978 57 WP MM BESS:BONNIE 1978-08-11 06:00:00 TS 17.9879 108.735 40 990 tokyo main 54 54 OO_O_____OP___ jtwc_wp WP101978 17.8000 108.700 35 0 18.3000 108.800 3 40 990 0 9 100 100 0 18.1000 108.700 TS 40 985 17.8000 108.700 TC 35 17.7274 108.708 2 37 11 265
1978217N16129 1978 57 WP MM BESS:BONNIE 1978-08-11 09:00:00 TS 17.9412 108.170 main 85 85 PP_P_____PP___ WP101978 17.7499 108.042 37 0 18.3000 108.308 3 40 990 0 9 100 100 18.0274 108.265 TS 40 985 17.7499 108.042 TC 37 17.7127 108.048 2 38 11 265
1978217N16129 1978 57 WP MM BESS:BONNIE 1978-08-11 12:00:00 TS 17.9000 107.617 40 990 tokyo main 104 63 OO_O_____OO___ jtwc_wp WP101978 17.7000 107.400 40 0 18.3000 107.800 3 40 990 0 9 100 100 0 18.0000 107.800 TS 40 985 17.7000 107.400 TC 40 17.7000 107.400 2 40 10 266
1978217N16129 1978 57 WP MM BESS:BONNIE 1978-08-11 15:00:00 TS 17.8694 107.078 main 63 10 PP_P_____PP___ WP101978 17.6997 106.793 37 0 18.2498 107.342 3 40 987 0 9 100 100 17.9924 107.308 TS 40 985 17.6997 106.793 TC 37 17.6820 106.776 2 36 10 268
1978217N16129 1978 57 WP MM BESS:BONNIE 1978-08-11 18:00:00 TS 17.8655 106.596 40 985 tokyo main 10 0 OO_O_____OP___ jtwc_wp WP101978 17.7000 106.200 35 0 18.2000 106.900 3 40 985 0 9 100 100 0 18.0000 106.800 TS 40 985 17.7000 106.200 TC 35 17.6585 106.172 2 32 9 270
1978217N16129 1978 57 WP MM BESS:BONNIE 1978-08-11 21:00:00 TS 17.8711 106.158 main 0 0 PP_P_____PP___ WP101978 17.6629 105.602 30 -1 18.1922 106.473 3 37 985 0 9 100 100 18.0070 106.338 TS 37 987 17.6629 105.602 TC 30 17.6307 105.583 2 28 8 271
1978217N16129 1978 57 WP MM BESS:BONNIE 1978-08-12 00:00:00 TS 17.8857 105.743 35 985 tokyo main 0 0 OO_O_____OO___ jtwc_wp WP101978 17.6000 105.000 25 -1 18.2000 106.000 3 35 985 0 9 100 100 0 18.0000 105.800 TS 35 990 17.6000 105.000 TC 25 17.6000 105.000 1 25 7 275
1978217N16129 1978 57 WP MM BESS:BONNIE 1978-08-12 03:00:00 TS 17.9291 105.392 main 0 0 _P_P__________ WP101978 -1 18.1999 105.430 3 987 0 9 17.9609 105.100 TS 32 992 TC 1 9 271
1978217N16129 1978 57 WP MM BESS:BONNIE 1978-08-12 06:00:00 TS 17.9000 104.833 990 tokyo main 0 0 _O_O__________ -1 18.2000 104.800 2 990 0 0 0 17.9000 104.300 TD 30 995 1 10 269
1978217N16129 1978 57 WP MM BESS:BONNIE 1978-08-12 09:00:00 TS 17.9073 104.336 main 0 0 _P____________ -1 18.2147 104.173 2 991 0 0 TD 1 10 270
1978217N16129 1978 57 WP MM BESS:BONNIE 1978-08-12 12:00:00 TS 17.9000 103.750 992 tokyo main 0 0 _O____________ -1 18.2000 103.500 2 992 0 0 0 11 266
1978217N16129 1978 57 WP MM BESS:BONNIE 1978-08-12 15:00:00 TS 17.8249 103.132 main 0 0 _P____________ -1 18.0999 102.765 2 994 0 0 13 265
1978217N16129 1978 57 WP MM BESS:BONNIE 1978-08-12 18:00:00 TS 17.7857 102.429 996 tokyo main 0 0 _O____________ -1 18.0000 102.000 2 996 0 0 0 14 269
1978217N16129 1978 57 WP MM BESS:BONNIE 1978-08-12 21:00:00 TS 17.7992 101.657 main 0 0 _P____________ -1 17.9549 101.235 2 996 0 0 16 274
1978217N16129 1978 57 WP MM BESS:BONNIE 1978-08-13 00:00:00 TS 17.9000 100.800 996 tokyo main 0 0 _O____________ -1 18.0000 100.500 2 996 0 0 0 18 281
1978217N16129 1978 57 NI BB BESS:BONNIE 1978-08-13 03:00:00 TS 18.1552 99.7529 main 0 0 _P____________ -1 18.1552 99.7529 2 996 0 0 16 288
1978217N16129 1978 57 NI BB BESS:BONNIE 1978-08-13 06:00:00 TS 18.4000 99.2000 main 0 0 _O____________ -1 18.4000 99.2000 2 996 0 0 0 9 307
1978217N16129 1978 57 NI BB BESS:BONNIE 1978-08-13 09:00:00 TS 18.6898 98.9946 main 0 0 _P____________ -1 18.6898 98.9946 2 997 0 0 6 342
1978217N16129 1978 57 NI BB BESS:BONNIE 1978-08-13 12:00:00 TS 19.0000 99.0000 main 0 _O____________ -1 19.0000 99.0000 2 998 0 0 0 6 0

Digital Typhoon Data and Search

About IBTrACS Database

This database is a web-friendly format of International Best Track Archive for Climate Stewardship (IBTrACS), a global best track data archive curated by NOAA dating back to 1842.

Updated: 2021-10-08